CheckWX is a tool to help pilots better visualize weather data.  It is not intended as a substitute for an official pre-flight weather briefing.

22:17:34 UTC

11R METAR
Brenham Municipal Airport
Brenham, Texas, USA
Current

23 mins ago

K11R 252155Z AUTO 36008G14KT 10SM SCT044 27/17 A3009 RMK AO2 T02730166
Observed
Mar-25 @ 21:55 UTC
Wind
  • 360° at 8 KTS
  • Gusting to 14 KTS
Visibility
10 SM
Flight Rules
VFR
Cloud Levels
  • Scattered at 4,400' AGL
Temperature
27°C / 81°F
Dewpoint
17°C / 63°F
Humidity
54%
Altimeter
30.09" Hg
Pressure
1018.92 hPa
Previous

48 mins ago

K11R 252130Z AUTO 01007KT 10SM SCT038 SCT044 SCT050 27/18 A3009 RMK AO2 T02740177
Observed
Mar-25 @ 21:30 UTC
Wind
  • 010° at 7 KTS
Visibility
10 SM
Flight Rules
VFR
Cloud Levels
  • Scattered at 3,800' AGL
  • Scattered at 4,400' AGL
  • Scattered at 5,000' AGL
Temperature
27°C / 81°F
Dewpoint
18°C / 64°F
Humidity
58%
Altimeter
30.09" Hg
Pressure
1018.92 hPa
Previous

1 hour ago

K11R 252115Z AUTO 36009G14KT 10SM SCT038 SCT044 BKN060 26/18 A3009 RMK AO2 T02640184
Observed
Mar-25 @ 21:15 UTC
Wind
  • 360° at 9 KTS
  • Gusting to 14 KTS
Visibility
10 SM
Flight Rules
VFR
Cloud Levels
  • Scattered at 3,800' AGL
  • Scattered at 4,400' AGL
  • Broken at 6,000' AGL
Temperature
26°C / 79°F
Dewpoint
18°C / 64°F
Humidity
61%
Altimeter
30.09" Hg
Pressure
1018.92 hPa